createdAt,value
2022-09-03T00:00:03.992Z,12.50
2022-09-03T00:01:03.907Z,12.44
2022-09-03T00:02:03.900Z,12.50
2022-09-03T00:03:04.048Z,12.50
2022-09-03T00:04:03.989Z,12.50
2022-09-03T00:05:03.994Z,12.50
2022-09-03T00:06:03.993Z,12.50
2022-09-03T00:07:04.059Z,12.50
2022-09-03T00:08:04.071Z,12.50
2022-09-03T00:09:04.088Z,12.50
2022-09-03T00:10:04.452Z,12.50
2022-09-03T00:11:04.400Z,12.50
2022-09-03T00:12:04.383Z,12.50
2022-09-03T00:13:04.489Z,12.50
2022-09-03T00:14:04.403Z,12.44
2022-09-03T00:15:03.510Z,12.44
2022-09-03T00:16:03.544Z,12.44
2022-09-03T00:17:03.583Z,12.44
2022-09-03T00:18:03.660Z,12.44
2022-09-03T00:19:03.703Z,12.44
2022-09-03T00:20:03.745Z,12.44
2022-09-03T00:21:03.748Z,12.44
2022-09-03T00:22:03.688Z,12.44
2022-09-03T00:23:03.824Z,12.44
2022-09-03T00:24:03.824Z,12.44
2022-09-03T00:25:03.993Z,12.38
2022-09-03T00:26:03.985Z,12.38
2022-09-03T00:27:03.997Z,12.31
2022-09-03T00:28:03.910Z,12.31
2022-09-03T00:29:03.991Z,12.38
2022-09-03T00:30:03.976Z,12.31
2022-09-03T00:31:04.038Z,12.31
2022-09-03T00:32:03.901Z,12.31
2022-09-03T00:33:03.901Z,12.31
2022-09-03T00:34:03.978Z,12.31
2022-09-03T00:35:03.982Z,12.25
2022-09-03T00:36:03.607Z,12.25
2022-09-03T00:37:03.447Z,12.25
2022-09-03T00:38:03.679Z,12.25
2022-09-03T00:39:03.767Z,12.25
2022-09-03T00:40:03.894Z,12.25
2022-09-03T00:41:03.988Z,12.25
2022-09-03T00:42:03.989Z,12.25
2022-09-03T00:43:04.149Z,12.25
2022-09-03T00:44:04.144Z,12.19
2022-09-03T00:45:04.232Z,12.25
2022-09-03T00:46:04.351Z,12.19
2022-09-03T00:47:04.235Z,12.25
2022-09-03T00:48:04.308Z,12.19
2022-09-03T00:49:04.306Z,12.19
2022-09-03T00:50:04.305Z,12.19
2022-09-03T00:51:04.312Z,12.19
2022-09-03T00:52:04.302Z,12.19
2022-09-03T00:53:04.256Z,12.19
2022-09-03T00:54:04.241Z,12.19
2022-09-03T00:55:04.227Z,12.12
2022-09-03T00:56:04.387Z,12.12
2022-09-03T00:57:04.387Z,12.12
2022-09-03T00:58:04.464Z,12.12
2022-09-03T00:59:03.511Z,12.19
2022-09-03T01:00:03.433Z,12.19
2022-09-03T01:01:03.503Z,12.12
2022-09-03T01:02:03.809Z,12.12
2022-09-03T01:03:03.667Z,12.12
2022-09-03T01:04:03.583Z,12.12
2022-09-03T01:05:03.668Z,12.06
2022-09-03T01:06:03.662Z,12.06
2022-09-03T01:07:03.828Z,12.06
2022-09-03T01:08:03.753Z,12.06
2022-09-03T01:09:03.746Z,12.00
2022-09-03T01:10:03.831Z,12.00
2022-09-03T01:11:03.925Z,12.00
2022-09-03T01:12:03.819Z,12.06
2022-09-03T01:13:04.225Z,12.00
2022-09-03T01:14:04.323Z,12.06
2022-09-03T01:15:04.224Z,12.00
2022-09-03T01:16:04.363Z,12.00
2022-09-03T01:17:04.468Z,12.00
2022-09-03T01:18:03.514Z,12.00
2022-09-03T01:19:03.828Z,12.00
2022-09-03T01:20:03.830Z,12.00
2022-09-03T01:21:03.830Z,12.00
2022-09-03T01:22:04.070Z,11.94
2022-09-03T01:23:03.905Z,11.94
2022-09-03T01:24:04.078Z,11.94
2022-09-03T01:25:03.992Z,11.88
2022-09-03T01:26:03.898Z,11.88
2022-09-03T01:27:04.077Z,11.88
2022-09-03T01:28:03.995Z,11.94
2022-09-03T01:29:04.146Z,11.88
2022-09-03T01:30:04.269Z,11.88
2022-09-03T01:31:04.448Z,11.88
2022-09-03T01:32:04.411Z,11.88
2022-09-03T01:33:04.392Z,11.88
2022-09-03T01:34:04.301Z,11.88
2022-09-03T01:35:04.386Z,11.88
2022-09-03T01:36:04.497Z,11.88
2022-09-03T01:37:03.508Z,11.81
2022-09-03T01:38:03.693Z,11.81
2022-09-03T01:39:03.686Z,11.81
2022-09-03T01:40:03.709Z,11.81
2022-09-03T01:41:03.750Z,11.81
2022-09-03T01:42:03.839Z,11.81
2022-09-03T01:43:03.827Z,11.81
2022-09-03T01:44:03.898Z,11.81
2022-09-03T01:45:03.986Z,11.81
2022-09-03T01:46:03.973Z,11.81
2022-09-03T01:47:04.071Z,11.81
2022-09-03T01:48:04.069Z,11.81
2022-09-03T01:49:04.061Z,11.81
2022-09-03T01:50:04.086Z,11.75
2022-09-03T01:51:04.227Z,11.75
2022-09-03T01:52:04.330Z,11.81
2022-09-03T01:53:04.305Z,11.75
2022-09-03T01:54:04.410Z,11.75
2022-09-03T01:55:03.500Z,11.75
2022-09-03T01:56:03.532Z,11.75
2022-09-03T01:57:03.525Z,11.75
2022-09-03T01:58:03.505Z,11.75
2022-09-03T01:59:03.669Z,11.75
2022-09-03T02:00:03.745Z,11.75
2022-09-03T02:01:03.760Z,11.75
2022-09-03T02:02:03.834Z,11.75
2022-09-03T02:03:04.017Z,11.75
2022-09-03T02:04:03.831Z,11.75
2022-09-03T02:05:03.836Z,11.75
2022-09-03T02:06:03.834Z,11.75
2022-09-03T02:07:03.841Z,11.75
2022-09-03T02:08:03.780Z,11.75
2022-09-03T02:09:03.834Z,11.75
2022-09-03T02:10:03.837Z,11.75
2022-09-03T02:11:04.085Z,11.75
2022-09-03T02:12:04.068Z,11.75
2022-09-03T02:13:04.080Z,11.69
2022-09-03T02:14:04.067Z,11.69
2022-09-03T02:15:04.152Z,11.69
2022-09-03T02:16:04.367Z,11.69
2022-09-03T02:17:04.306Z,11.69
2022-09-03T02:18:04.482Z,11.69
2022-09-03T02:19:04.470Z,11.69
2022-09-03T02:20:04.391Z,11.69
2022-09-03T02:21:03.511Z,11.62
2022-09-03T02:22:03.513Z,11.62
2022-09-03T02:23:03.607Z,11.62
2022-09-03T02:24:03.508Z,11.62
2022-09-03T02:25:03.596Z,11.62
2022-09-03T02:26:04.301Z,11.62
2022-09-03T02:27:04.296Z,11.56
2022-09-03T02:28:04.461Z,11.56
2022-09-03T02:29:03.516Z,11.56
2022-09-03T02:30:03.508Z,11.56
2022-09-03T02:31:03.681Z,11.56
2022-09-03T02:32:04.223Z,11.50
2022-09-03T02:33:04.227Z,11.56
2022-09-03T02:34:04.316Z,11.56
2022-09-03T02:35:04.380Z,11.50
2022-09-03T02:36:04.395Z,11.50
2022-09-03T02:37:04.309Z,11.50
2022-09-03T02:38:04.317Z,11.50
2022-09-03T02:39:04.382Z,11.50
2022-09-03T02:40:03.577Z,11.50
2022-09-03T02:41:03.582Z,11.50
2022-09-03T02:42:03.593Z,11.50
2022-09-03T02:43:03.749Z,11.50
2022-09-03T02:44:03.672Z,11.50
2022-09-03T02:45:03.767Z,11.50
2022-09-03T02:46:03.719Z,11.50
2022-09-03T02:47:03.677Z,11.50
2022-09-03T02:48:03.684Z,11.50
2022-09-03T02:49:03.666Z,11.44
2022-09-03T02:50:03.582Z,11.44
2022-09-03T02:51:13.640Z,11.44
2022-09-03T02:52:03.663Z,11.44
2022-09-03T02:53:03.755Z,11.44
2022-09-03T02:54:03.758Z,11.50
2022-09-03T02:55:03.685Z,11.44
2022-09-03T02:56:03.660Z,11.44
2022-09-03T02:57:03.670Z,11.44
2022-09-03T02:58:03.752Z,11.44
2022-09-03T02:59:03.748Z,11.44
2022-09-03T03:00:03.830Z,11.38
2022-09-03T03:01:03.787Z,11.44
2022-09-03T03:02:03.973Z,11.44
2022-09-03T03:03:03.917Z,11.38
2022-09-03T03:04:03.909Z,11.44
2022-09-03T03:05:04.058Z,11.44
2022-09-03T03:06:04.062Z,11.44
2022-09-03T03:07:04.149Z,11.44
2022-09-03T03:08:04.068Z,11.38
2022-09-03T03:09:04.155Z,11.44
2022-09-03T03:10:04.216Z,11.44
2022-09-03T03:11:04.231Z,11.44
2022-09-03T03:12:04.229Z,11.44
2022-09-03T03:13:04.301Z,11.44
2022-09-03T03:14:04.317Z,11.44
2022-09-03T03:15:04.314Z,11.38
2022-09-03T03:16:04.225Z,11.38
2022-09-03T03:17:04.471Z,11.44
2022-09-03T03:18:04.469Z,11.38
2022-09-03T03:19:03.431Z,11.44
2022-09-03T03:20:03.686Z,11.44
2022-09-03T03:21:03.593Z,11.44
2022-09-03T03:22:03.656Z,11.44
2022-09-03T03:23:03.826Z,11.44
2022-09-03T03:24:03.753Z,11.38
2022-09-03T03:25:03.831Z,11.44
2022-09-03T03:26:03.821Z,11.44
2022-09-03T03:27:03.831Z,11.44
2022-09-03T03:28:04.001Z,11.38
2022-09-03T03:29:03.994Z,11.38
2022-09-03T03:30:04.040Z,11.38
2022-09-03T03:31:04.099Z,11.38
2022-09-03T03:32:03.994Z,11.38
2022-09-03T03:33:04.171Z,11.38
2022-09-03T03:34:04.073Z,11.38
2022-09-03T03:35:04.146Z,11.38
2022-09-03T03:36:04.238Z,11.38
2022-09-03T03:37:04.139Z,11.38
2022-09-03T03:38:04.228Z,11.38
2022-09-03T03:39:04.384Z,11.38
2022-09-03T03:40:04.424Z,11.38
2022-09-03T03:41:04.390Z,11.38
2022-09-03T03:42:03.659Z,11.31
2022-09-03T03:43:03.595Z,11.31
2022-09-03T03:44:03.664Z,11.31
2022-09-03T03:45:03.822Z,11.38
2022-09-03T03:46:04.022Z,11.38
2022-09-03T03:47:03.986Z,11.38
2022-09-03T03:48:04.090Z,11.38
2022-09-03T03:49:04.154Z,11.38
2022-09-03T03:50:04.149Z,11.38
2022-09-03T03:51:04.236Z,11.38
2022-09-03T03:52:04.382Z,11.38
2022-09-03T03:53:04.384Z,11.38
2022-09-03T03:54:05.155Z,11.38
2022-09-03T03:55:03.519Z,11.38
2022-09-03T03:56:03.585Z,11.38
2022-09-03T03:57:03.588Z,11.38
2022-09-03T03:58:03.680Z,11.38
2022-09-03T03:59:03.663Z,11.38
2022-09-03T04:00:03.749Z,11.38
2022-09-03T04:01:03.867Z,11.38
2022-09-03T04:02:03.820Z,11.38
2022-09-03T04:03:03.821Z,11.38
2022-09-03T04:04:03.750Z,11.31
2022-09-03T04:05:03.849Z,11.38
2022-09-03T04:06:03.836Z,11.38
2022-09-03T04:07:03.976Z,11.38
2022-09-03T04:08:03.904Z,11.38
2022-09-03T04:09:03.828Z,11.38
2022-09-03T04:10:03.901Z,11.38
2022-09-03T04:11:03.995Z,11.44
2022-09-03T04:12:04.138Z,11.44
2022-09-03T04:13:04.221Z,11.38
2022-09-03T04:14:04.226Z,11.44
2022-09-03T04:15:04.303Z,11.38
2022-09-03T04:16:04.378Z,11.38
2022-09-03T04:17:04.530Z,11.44
2022-09-03T04:18:04.459Z,11.44
2022-09-03T04:19:03.500Z,11.44
2022-09-03T04:20:03.662Z,11.44
2022-09-03T04:21:03.670Z,11.44
2022-09-03T04:22:03.743Z,11.44
2022-09-03T04:23:03.752Z,11.44
2022-09-03T04:24:03.827Z,11.44
2022-09-03T04:25:04.574Z,11.44
2022-09-03T04:26:04.010Z,11.44
2022-09-03T04:27:03.755Z,11.44
2022-09-03T04:28:03.973Z,11.44
2022-09-03T04:29:03.920Z,11.44
2022-09-03T04:30:04.108Z,11.44
2022-09-03T04:31:04.163Z,11.44
2022-09-03T04:32:04.234Z,11.44
2022-09-03T04:33:04.235Z,11.44
2022-09-03T04:34:04.232Z,11.44
2022-09-03T04:35:04.222Z,11.44
2022-09-03T04:36:04.226Z,11.44
2022-09-03T04:37:04.389Z,11.44
2022-09-03T04:38:04.408Z,11.44
2022-09-03T04:39:04.378Z,11.44
2022-09-03T04:40:04.390Z,11.44
2022-09-03T04:41:04.310Z,11.44
2022-09-03T04:42:04.384Z,11.50
2022-09-03T04:43:03.502Z,11.50
2022-09-03T04:44:03.589Z,11.50
2022-09-03T04:45:03.678Z,11.44
2022-09-03T04:46:03.634Z,11.44
2022-09-03T04:47:03.663Z,11.44
2022-09-03T04:48:03.672Z,11.50
2022-09-03T04:49:03.741Z,11.50
2022-09-03T04:50:03.761Z,11.50
2022-09-03T04:51:03.816Z,11.50
2022-09-03T04:52:03.823Z,11.50
2022-09-03T04:53:07.729Z,11.50
2022-09-03T04:54:03.745Z,11.50
2022-09-03T04:55:03.738Z,11.50
2022-09-03T04:56:03.825Z,11.50
2022-09-03T04:57:03.911Z,11.56
2022-09-03T04:58:03.915Z,11.56
2022-09-03T04:59:03.822Z,11.56
2022-09-03T05:00:03.991Z,11.56
2022-09-03T05:01:04.133Z,11.56
2022-09-03T05:02:04.021Z,11.56
2022-09-03T05:03:04.227Z,11.56
2022-09-03T05:04:04.224Z,11.56
2022-09-03T05:05:04.229Z,11.62
2022-09-03T05:06:04.150Z,11.62
2022-09-03T05:07:04.312Z,11.69
2022-09-03T05:08:04.316Z,11.69
2022-09-03T05:09:04.389Z,11.69
2022-09-03T05:10:03.504Z,11.75
2022-09-03T05:11:03.506Z,11.81
2022-09-03T05:12:03.511Z,11.94
2022-09-03T05:13:03.686Z,12.06
2022-09-03T05:14:03.788Z,12.19
2022-09-03T05:15:03.862Z,12.25
2022-09-03T05:16:04.012Z,12.50
2022-09-03T05:17:03.981Z,13.12
2022-09-03T05:18:04.074Z,13.12
2022-09-03T05:19:04.649Z,15.12
2022-09-03T05:20:03.749Z,15.81
2022-09-03T05:21:03.998Z,16.56
2022-09-03T05:22:03.909Z,16.56
2022-09-03T05:23:03.990Z,17.88
2022-09-03T05:24:03.987Z,18.38
2022-09-03T05:25:04.162Z,18.38
2022-09-03T05:26:04.150Z,19.31
2022-09-03T05:27:04.231Z,19.75
2022-09-03T05:28:04.482Z,20.00
2022-09-03T05:29:04.474Z,20.38
2022-09-03T05:30:04.470Z,20.75
2022-09-03T05:31:04.392Z,21.12
2022-09-03T05:32:04.416Z,21.44
2022-09-03T05:33:03.582Z,21.81
2022-09-03T05:34:03.606Z,22.12
2022-09-03T05:35:03.584Z,22.38
2022-09-03T05:36:03.697Z,22.56
2022-09-03T05:37:03.774Z,22.88
2022-09-03T05:38:04.152Z,23.25
2022-09-03T05:39:04.059Z,23.44
2022-09-03T05:40:04.275Z,23.69
2022-09-03T05:41:04.223Z,23.88
2022-09-03T05:42:04.322Z,23.88
2022-09-03T05:43:06.567Z,24.00
2022-09-03T05:44:03.660Z,24.25
2022-09-03T05:45:03.755Z,24.19
2022-09-03T05:46:03.918Z,23.50
2022-09-03T05:47:03.848Z,22.31
2022-09-03T05:48:03.833Z,21.25
2022-09-03T05:49:03.908Z,20.25
2022-09-03T05:50:03.904Z,19.81
2022-09-03T05:51:03.913Z,19.56
2022-09-03T05:52:04.149Z,19.44
2022-09-03T05:53:04.154Z,19.50
2022-09-03T05:54:04.232Z,20.00
2022-09-03T05:55:04.304Z,20.69
2022-09-03T05:56:04.230Z,21.00
2022-09-03T05:57:04.297Z,21.00
2022-09-03T05:58:04.310Z,20.56
2022-09-03T05:59:04.308Z,19.94
2022-09-03T06:00:04.300Z,20.00
2022-09-03T06:01:03.517Z,19.62
2022-09-03T06:02:04.060Z,19.19
2022-09-03T06:03:04.013Z,18.94
2022-09-03T06:04:04.071Z,18.62
2022-09-03T06:05:04.072Z,18.38
2022-09-03T06:06:04.142Z,18.19
2022-09-03T06:07:04.064Z,18.06
2022-09-03T06:08:03.985Z,17.94
2022-09-03T06:09:04.152Z,17.88
2022-09-03T06:10:04.070Z,17.75
2022-09-03T06:11:04.166Z,17.62
2022-09-03T06:12:04.638Z,17.50
2022-09-03T06:13:04.309Z,17.44
2022-09-03T06:14:04.321Z,17.50
2022-09-03T06:15:04.389Z,17.38
2022-09-03T06:16:04.528Z,17.38
2022-09-03T06:17:04.476Z,17.44
2022-09-03T06:18:03.508Z,17.44
2022-09-03T06:19:03.686Z,17.31
2022-09-03T06:20:03.710Z,17.31
2022-09-03T06:21:03.673Z,17.38
2022-09-03T06:22:03.747Z,17.38
2022-09-03T06:23:03.902Z,17.38
2022-09-03T06:24:03.907Z,17.38
2022-09-03T06:25:03.917Z,17.44
2022-09-03T06:26:05.398Z,17.50
2022-09-03T06:27:03.996Z,17.75
2022-09-03T06:28:04.092Z,18.00
2022-09-03T06:29:04.163Z,18.12
2022-09-03T06:30:04.073Z,18.12
2022-09-03T06:31:04.066Z,18.19
2022-09-03T06:32:04.278Z,18.19
2022-09-03T06:33:04.373Z,18.19
2022-09-03T06:34:04.474Z,18.12
2022-09-03T06:35:04.237Z,18.12
2022-09-03T06:36:08.160Z,18.25
2022-09-03T06:37:04.393Z,18.38
2022-09-03T06:38:04.341Z,18.56
2022-09-03T06:39:04.313Z,18.56
2022-09-03T06:40:04.546Z,18.50
2022-09-03T06:41:04.383Z,18.56
2022-09-03T06:42:04.409Z,18.56
2022-09-03T06:43:03.587Z,18.69
2022-09-03T06:44:03.750Z,18.69
2022-09-03T06:45:03.839Z,18.69
2022-09-03T06:46:04.000Z,18.62
2022-09-03T06:47:03.918Z,18.56
2022-09-03T06:48:03.984Z,18.62
2022-09-03T06:49:03.991Z,18.56
2022-09-03T06:50:04.061Z,18.56
2022-09-03T06:51:04.281Z,18.62
2022-09-03T06:52:04.319Z,18.69
2022-09-03T06:53:04.325Z,18.69
2022-09-03T06:54:04.315Z,18.75
2022-09-03T06:55:04.224Z,18.81
2022-09-03T06:56:04.309Z,18.88
2022-09-03T06:57:04.313Z,18.88
2022-09-03T06:58:04.415Z,18.88
2022-09-03T06:59:03.451Z,18.94
2022-09-03T07:00:03.530Z,18.88
2022-09-03T07:01:03.655Z,18.94
2022-09-03T07:02:03.687Z,18.94
2022-09-03T07:03:03.683Z,18.94
2022-09-03T07:04:03.768Z,19.00
2022-09-03T07:05:03.780Z,19.00
2022-09-03T07:06:03.745Z,19.12
2022-09-03T07:07:03.825Z,19.19
2022-09-03T07:08:03.769Z,19.38
2022-09-03T07:09:03.836Z,19.44
2022-09-03T07:10:03.842Z,19.56
2022-09-03T07:11:03.836Z,19.62
2022-09-03T07:12:03.822Z,19.75
2022-09-03T07:13:03.919Z,19.88
2022-09-03T07:14:03.837Z,19.94
2022-09-03T07:15:03.854Z,20.06
2022-09-03T07:16:03.959Z,20.25
2022-09-03T07:17:03.987Z,20.38
2022-09-03T07:18:03.908Z,20.50
2022-09-03T07:19:03.514Z,20.62
2022-09-03T07:20:03.671Z,20.69
2022-09-03T07:21:03.680Z,20.75
2022-09-03T07:22:03.667Z,20.75
2022-09-03T07:23:03.757Z,20.81
2022-09-03T07:24:04.316Z,21.00
2022-09-03T07:25:04.301Z,21.00
2022-09-03T07:26:04.391Z,21.12
2022-09-03T07:27:04.388Z,21.31
2022-09-03T07:28:04.551Z,21.50
2022-09-03T07:29:04.473Z,21.62
2022-09-03T07:30:03.509Z,21.81
2022-09-03T07:31:03.520Z,21.94
2022-09-03T07:32:03.624Z,21.94
2022-09-03T07:33:03.597Z,22.12
2022-09-03T07:34:03.522Z,22.31
2022-09-03T07:35:03.682Z,22.56
2022-09-03T07:36:03.751Z,22.75
2022-09-03T07:37:03.845Z,23.00
2022-09-03T07:38:03.987Z,23.25
2022-09-03T07:39:04.145Z,23.44
2022-09-03T07:40:04.221Z,23.69
2022-09-03T07:41:04.234Z,23.88
2022-09-03T07:42:04.399Z,24.06
2022-09-03T07:43:04.400Z,24.06
2022-09-03T07:44:04.391Z,24.19
2022-09-03T07:45:03.520Z,24.31
2022-09-03T07:46:03.520Z,24.38
2022-09-03T07:47:03.687Z,24.44
2022-09-03T07:48:03.588Z,24.50
2022-09-03T07:49:03.680Z,24.56
2022-09-03T07:50:03.754Z,24.44
2022-09-03T07:51:03.853Z,24.31
2022-09-03T07:52:03.872Z,24.31
2022-09-03T07:53:03.919Z,24.31
2022-09-03T07:54:03.913Z,24.25
2022-09-03T07:55:03.995Z,24.19
2022-09-03T07:56:04.393Z,24.12
2022-09-03T07:57:03.524Z,24.06
2022-09-03T07:58:03.852Z,24.00
2022-09-03T07:59:03.668Z,23.94
2022-09-03T08:00:04.150Z,24.06
2022-09-03T08:01:04.283Z,24.12
2022-09-03T08:02:04.316Z,24.19
2022-09-03T08:03:04.338Z,24.25
2022-09-03T08:04:04.470Z,24.38
2022-09-03T08:05:04.394Z,24.19
2022-09-03T08:06:04.405Z,24.19
2022-09-03T08:07:03.592Z,24.19
2022-09-03T08:08:03.526Z,24.31
2022-09-03T08:09:05.211Z,24.38
2022-09-03T08:10:03.539Z,24.25
2022-09-03T08:11:03.510Z,24.12
2022-09-03T08:12:03.668Z,24.00
2022-09-03T08:13:03.674Z,24.00
2022-09-03T08:14:03.772Z,24.00
2022-09-03T08:15:03.751Z,24.00
2022-09-03T08:16:03.819Z,24.12
2022-09-03T08:17:03.840Z,24.12
2022-09-03T08:18:05.926Z,24.06
2022-09-03T08:19:03.836Z,23.88
2022-09-03T08:20:03.909Z,23.81
2022-09-03T08:21:04.006Z,23.81
2022-09-03T08:22:03.989Z,23.81
2022-09-03T08:23:03.904Z,23.81
2022-09-03T08:24:03.992Z,23.81
2022-09-03T08:25:04.391Z,23.81
2022-09-03T08:26:04.479Z,23.81
2022-09-03T08:27:03.507Z,23.81
2022-09-03T08:28:04.153Z,23.81
2022-09-03T08:29:04.248Z,23.88
2022-09-03T08:30:04.244Z,23.81
2022-09-03T08:31:04.396Z,23.69
2022-09-03T08:32:05.311Z,23.69
2022-09-03T08:33:04.392Z,23.62
2022-09-03T08:34:04.492Z,23.62
2022-09-03T08:35:04.483Z,23.56
2022-09-03T08:36:04.485Z,23.62
2022-09-03T08:37:03.601Z,23.56
2022-09-03T08:38:03.604Z,23.56
2022-09-03T08:39:03.511Z,23.38
2022-09-03T08:40:03.784Z,23.25
2022-09-03T08:41:03.685Z,23.19
2022-09-03T08:42:03.845Z,23.12
2022-09-03T08:43:06.748Z,23.06
2022-09-03T08:44:03.773Z,23.00
2022-09-03T08:45:04.313Z,23.06
2022-09-03T08:46:04.342Z,23.12
2022-09-03T08:47:03.509Z,23.06
2022-09-03T08:48:03.520Z,23.12
2022-09-03T08:49:03.604Z,23.06
2022-09-03T08:50:03.602Z,22.94
2022-09-03T08:51:03.755Z,23.00
2022-09-03T08:52:03.765Z,23.00
2022-09-03T08:53:04.232Z,22.94
2022-09-03T08:54:04.304Z,22.88
2022-09-03T08:55:04.362Z,22.81
2022-09-03T08:56:04.393Z,22.69
2022-09-03T08:57:04.391Z,22.62
2022-09-03T08:58:03.520Z,22.50
2022-09-03T08:59:03.597Z,22.44
2022-09-03T09:00:03.595Z,22.44
2022-09-03T09:01:03.841Z,22.38
2022-09-03T09:02:03.871Z,22.38
2022-09-03T09:03:03.812Z,22.44
2022-09-03T09:04:03.678Z,22.38
2022-09-03T09:05:05.978Z,22.38
2022-09-03T09:06:03.913Z,22.31
2022-09-03T09:07:04.082Z,22.25
2022-09-03T09:08:04.069Z,22.25
2022-09-03T09:09:04.247Z,22.25
2022-09-03T09:10:04.232Z,22.19
2022-09-03T09:11:04.309Z,22.19
2022-09-03T09:12:04.399Z,22.12
2022-09-03T09:13:04.393Z,22.12
2022-09-03T09:14:04.466Z,22.12
2022-09-03T09:15:03.502Z,22.12
2022-09-03T09:16:03.557Z,22.12
2022-09-03T09:17:04.475Z,22.19
2022-09-03T09:18:04.468Z,22.25
2022-09-03T09:19:04.483Z,22.25
2022-09-03T09:20:03.520Z,22.25
2022-09-03T09:21:03.669Z,22.31
2022-09-03T09:22:03.763Z,22.19
2022-09-03T09:23:03.863Z,22.12
2022-09-03T09:24:03.837Z,22.12
2022-09-03T09:25:03.914Z,22.06
2022-09-03T09:26:03.910Z,22.06
2022-09-03T09:27:03.987Z,22.12
2022-09-03T09:28:03.931Z,22.12
2022-09-03T09:29:03.877Z,22.12
2022-09-03T09:30:03.996Z,22.12
2022-09-03T09:31:03.978Z,22.12
2022-09-03T09:32:04.873Z,22.19
2022-09-03T09:33:03.997Z,22.12
2022-09-03T09:34:04.001Z,22.12
2022-09-03T09:35:04.001Z,22.06
2022-09-03T09:36:03.936Z,22.06
2022-09-03T09:37:04.311Z,22.06
2022-09-03T09:38:04.230Z,22.00
2022-09-03T09:39:04.219Z,22.00
2022-09-03T09:40:04.365Z,22.00
2022-09-03T09:41:04.317Z,22.00
2022-09-03T09:42:04.321Z,21.94
2022-09-03T09:43:04.419Z,21.94
2022-09-03T09:44:04.385Z,21.94
2022-09-03T09:45:04.469Z,21.94
2022-09-03T09:46:03.560Z,21.94
2022-09-03T09:47:03.598Z,21.88
2022-09-03T09:48:03.662Z,21.81
2022-09-03T09:49:03.671Z,21.81
2022-09-03T09:50:03.677Z,21.81
2022-09-03T09:51:03.721Z,21.81
2022-09-03T09:52:03.833Z,21.81
2022-09-03T09:53:03.910Z,21.81
2022-09-03T09:54:03.919Z,21.81
2022-09-03T09:55:03.906Z,21.94
2022-09-03T09:56:03.905Z,21.94
2022-09-03T09:57:03.910Z,22.00
2022-09-03T09:58:03.992Z,22.06
2022-09-03T09:59:04.153Z,22.12
2022-09-03T10:00:04.231Z,22.06
2022-09-03T10:01:04.229Z,22.12
2022-09-03T10:02:04.299Z,22.06
2022-09-03T10:03:05.330Z,22.06
2022-09-03T10:04:04.383Z,22.06
2022-09-03T10:05:04.463Z,22.12
2022-09-03T10:06:04.385Z,22.06
2022-09-03T10:07:04.506Z,22.06
2022-09-03T10:08:04.386Z,22.06
2022-09-03T10:09:03.503Z,22.06
2022-09-03T10:10:03.614Z,22.06
2022-09-03T10:11:03.672Z,22.00
2022-09-03T10:12:03.747Z,22.00
2022-09-03T10:13:03.823Z,22.00
2022-09-03T10:14:03.906Z,21.88
2022-09-03T10:15:03.929Z,21.94
2022-09-03T10:16:03.969Z,22.00
2022-09-03T10:17:04.067Z,22.06
2022-09-03T10:18:03.996Z,22.00
2022-09-03T10:19:04.064Z,21.94
2022-09-03T10:20:04.087Z,21.94
2022-09-03T10:21:04.067Z,21.94
2022-09-03T10:22:04.060Z,22.00
2022-09-03T10:23:04.145Z,22.00
2022-09-03T10:24:07.507Z,22.06
2022-09-03T10:25:04.478Z,22.06
2022-09-03T10:26:04.383Z,22.00
2022-09-03T10:27:04.487Z,21.94
2022-09-03T10:28:03.591Z,21.88
2022-09-03T10:29:03.660Z,21.94
2022-09-03T10:30:03.574Z,21.94
2022-09-03T10:31:03.620Z,21.94
2022-09-03T10:32:03.665Z,22.00
2022-09-03T10:33:03.749Z,22.06
2022-09-03T10:34:03.917Z,22.00
2022-09-03T10:35:04.070Z,22.06
2022-09-03T10:36:04.005Z,22.12
2022-09-03T10:37:04.158Z,22.12
2022-09-03T10:38:04.057Z,22.12
2022-09-03T10:39:04.146Z,22.12
2022-09-03T10:40:04.447Z,22.12
2022-09-03T10:41:04.385Z,22.12
2022-09-03T10:42:03.532Z,22.12
2022-09-03T10:43:03.530Z,22.12
2022-09-03T10:44:03.660Z,22.12
2022-09-03T10:45:03.671Z,22.12
2022-09-03T10:46:03.652Z,22.12
2022-09-03T10:47:03.596Z,22.19
2022-09-03T10:48:03.512Z,22.25
2022-09-03T10:49:03.665Z,22.31
2022-09-03T10:50:03.629Z,22.31
2022-09-03T10:51:03.670Z,22.31
2022-09-03T10:52:03.669Z,22.38
2022-09-03T10:53:03.831Z,22.44
2022-09-03T10:54:03.744Z,22.50
2022-09-03T10:55:03.748Z,22.50
2022-09-03T10:56:03.825Z,22.56
2022-09-03T10:57:03.899Z,22.56
2022-09-03T10:58:03.897Z,22.62
2022-09-03T10:59:03.895Z,22.62
2022-09-03T11:00:03.905Z,22.62
2022-09-03T11:01:03.885Z,22.62
2022-09-03T11:02:03.919Z,22.62
2022-09-03T11:03:04.074Z,22.56
2022-09-03T11:04:04.088Z,22.50
2022-09-03T11:05:04.077Z,22.50
2022-09-03T11:06:03.984Z,22.50
2022-09-03T11:07:05.022Z,22.44
2022-09-03T11:08:03.998Z,22.44
2022-09-03T11:09:06.576Z,22.50
2022-09-03T11:10:04.072Z,22.50
2022-09-03T11:11:04.070Z,22.44
2022-09-03T11:12:04.155Z,22.50
2022-09-03T11:13:04.231Z,22.50
2022-09-03T11:14:04.234Z,22.56
2022-09-03T11:15:04.225Z,22.56
2022-09-03T11:16:04.466Z,22.56
2022-09-03T11:17:04.313Z,22.56
2022-09-03T11:18:04.310Z,22.56
2022-09-03T11:19:04.385Z,22.50
2022-09-03T11:20:04.388Z,22.50
2022-09-03T11:21:05.927Z,22.56
2022-09-03T11:22:04.466Z,22.56
2022-09-03T11:23:04.557Z,22.56
2022-09-03T11:24:04.460Z,22.56
2022-09-03T11:25:03.507Z,22.56
2022-09-03T11:26:03.579Z,22.56
2022-09-03T11:27:03.499Z,22.62
2022-09-03T11:28:03.586Z,22.69
2022-09-03T11:29:03.832Z,22.75
2022-09-03T11:30:03.829Z,22.75
2022-09-03T11:31:03.984Z,22.81
2022-09-03T11:32:03.914Z,22.88
2022-09-03T11:33:03.916Z,22.88
2022-09-03T11:34:03.986Z,22.94
2022-09-03T11:35:03.923Z,22.94
2022-09-03T11:36:04.059Z,23.00
2022-09-03T11:37:04.151Z,23.00
2022-09-03T11:38:04.139Z,23.00
2022-09-03T11:39:04.151Z,23.06
2022-09-03T11:40:04.168Z,23.12
2022-09-03T11:41:04.241Z,23.12
2022-09-03T11:42:04.311Z,23.12
2022-09-03T11:43:04.230Z,23.06
2022-09-03T11:44:04.627Z,23.06
2022-09-03T11:45:04.217Z,23.12
2022-09-03T11:46:04.397Z,23.19
2022-09-03T11:47:04.394Z,23.19
2022-09-03T11:48:04.465Z,23.19
2022-09-03T11:49:03.519Z,23.19
2022-09-03T11:50:03.518Z,23.19
2022-09-03T11:51:03.762Z,23.25
2022-09-03T11:52:03.755Z,23.25
2022-09-03T11:53:03.761Z,23.25
2022-09-03T11:54:03.822Z,23.31
2022-09-03T11:55:03.838Z,23.38
2022-09-03T11:56:03.844Z,23.44
2022-09-03T11:57:03.908Z,23.44
2022-09-03T11:58:03.837Z,23.44
2022-09-03T11:59:03.996Z,23.44
2022-09-03T12:00:04.062Z,23.50
2022-09-03T12:01:04.266Z,23.50
2022-09-03T12:02:04.446Z,23.50
2022-09-03T12:03:04.461Z,23.56
2022-09-03T12:04:04.395Z,23.56
2022-09-03T12:05:04.522Z,23.56
2022-09-03T12:06:04.476Z,23.56
2022-09-03T12:07:03.510Z,23.56
2022-09-03T12:08:08.278Z,23.62
2022-09-03T12:09:03.685Z,23.62
2022-09-03T12:10:03.664Z,23.69
2022-09-03T12:11:03.784Z,23.62
2022-09-03T12:12:03.919Z,23.62
2022-09-03T12:13:03.912Z,23.62
2022-09-03T12:14:03.986Z,23.69
2022-09-03T12:15:04.076Z,23.75
2022-09-03T12:16:04.199Z,23.69
2022-09-03T12:17:04.387Z,23.75
2022-09-03T12:18:04.383Z,23.81
2022-09-03T12:19:03.499Z,23.81
2022-09-03T12:20:03.514Z,23.81
2022-09-03T12:21:04.374Z,23.81
2022-09-03T12:22:04.469Z,23.75
2022-09-03T12:23:04.465Z,23.75
2022-09-03T12:24:03.497Z,23.81
2022-09-03T12:25:03.596Z,23.88
2022-09-03T12:26:03.589Z,23.88
2022-09-03T12:27:03.626Z,23.88
2022-09-03T12:28:03.673Z,23.94
2022-09-03T12:29:03.602Z,23.94
2022-09-03T12:30:03.676Z,23.94
2022-09-03T12:31:03.799Z,23.94
2022-09-03T12:32:03.672Z,23.94
2022-09-03T12:33:03.754Z,23.94
2022-09-03T12:34:03.837Z,24.00
2022-09-03T12:35:03.911Z,24.00
2022-09-03T12:36:03.920Z,24.00
2022-09-03T12:37:03.989Z,24.00
2022-09-03T12:38:06.295Z,24.06
2022-09-03T12:39:12.533Z,24.00
2022-09-03T12:40:05.654Z,24.00
2022-09-03T12:41:21.253Z,24.00
2022-09-03T12:42:04.319Z,24.00
2022-09-03T12:44:03.512Z,23.94
2022-09-03T12:45:03.586Z,23.88
2022-09-03T12:46:11.316Z,23.88
2022-09-03T12:47:35.473Z,23.88
2022-09-03T12:48:03.962Z,23.81
2022-09-03T12:49:31.167Z,23.81
2022-09-03T12:50:04.069Z,23.81
2022-09-03T12:52:06.033Z,23.88
2022-09-03T12:53:03.817Z,23.88
2022-09-03T12:54:03.818Z,23.88